Terminal Aerodrome Forecast
Issued by NWS

Home | Current Version | Previous Version | Text Only | Print | Product List | Glossary On
Versions: 1 2 3 4 5 6 7 8 9 10 11 12 13 14 15 16 17 18
000
FTUS46 KSEW 210500
TAFSEA
TAF
KSEA 210524Z 2106/2212 02007KT P6SM FEW200
     FM211300 20007KT P6SM SCT005
      TEMPO 2113/2116 BKN005
     FM211700 22010KT P6SM VCSH SCT022 BKN040
     FM220000 24014KT P6SM VCSH SCT020 BKN040
     FM220600 20012KT P6SM VCSH SCT015 OVC030=

USA.gov is the U.S. government's official web portal to all federal, state and local government web resources and services.